Time;durP1;ratioP1;P1;durP2;ratioP2;P2;SDS_P1;SDS_P2;PMS_P1;PMS_P2;Temp;Humidity;BMP_temperature;BMP_pressure;BME280_temperature;BME280_humidity;BME280_pressure;Samples;Min_cycle;Max_cycle;Signal;HPM_P1;HPM_P2
2023/10/31 00:02:22;;;;;;;7.53;5.05;;;;;;;;;;6121645;23;20081;-83
2023/10/31 00:04:48;;;;;;;7.35;5.68;;;;;;;;;;6175228;23;20021;-83
2023/10/31 00:07:14;;;;;;;5.65;5.13;;;;;;;;;;6176046;23;20016;-83
2023/10/31 00:09:40;;;;;;;6.15;4.95;;;;;;;;;;6151909;23;19993;-82
2023/10/31 00:12:07;;;;;;;4.57;4.10;;;;;;;;;;6179200;23;20010;-81
2023/10/31 00:14:33;;;;;;;5.03;4.57;;;;;;;;;;6176511;23;20016;-82
2023/10/31 00:16:59;;;;;;;5.00;4.50;;;;;;;;;;6174221;23;20013;-82
2023/10/31 00:19:25;;;;;;;4.38;3.97;;;;;;;;;;6177283;23;20080;-83
2023/10/31 00:21:51;;;;;;;4.72;4.00;;;;;;;;;;6155392;23;20077;-84
2023/10/31 00:24:18;;;;;;;4.63;4.10;;;;;;;;;;6153157;23;20418;-83
2023/10/31 00:26:44;;;;;;;6.45;3.88;;;;;;;;;;6179395;23;20057;-84
2023/10/31 00:29:10;;;;;;;4.32;3.80;;;;;;;;;;6178926;23;20498;-82
2023/10/31 00:31:36;;;;;;;4.03;3.63;;;;;;;;;;6175455;23;20009;-83
2023/10/31 00:34:02;;;;;;;3.67;3.40;;;;;;;;;;6173830;23;20040;-82
2023/10/31 00:36:29;;;;;;;4.43;4.03;;;;;;;;;;6176861;23;20017;-82
2023/10/31 00:38:55;;;;;;;3.97;3.67;;;;;;;;;;6148238;23;20013;-81
2023/10/31 00:41:21;;;;;;;4.22;3.78;;;;;;;;;;6173260;23;20014;-82
2023/10/31 00:43:48;;;;;;;3.85;3.58;;;;;;;;;;6128421;23;20025;-82
2023/10/31 00:46:14;;;;;;;4.72;3.60;;;;;;;;;;6180305;23;20073;-83
2023/10/31 00:48:40;;;;;;;4.38;3.70;;;;;;;;;;6179522;23;20013;-81
2023/10/31 00:51:06;;;;;;;3.92;3.63;;;;;;;;;;6152953;23;20014;-78
2023/10/31 00:53:32;;;;;;;3.92;3.63;;;;;;;;;;6177703;23;20023;-82
2023/10/31 00:55:58;;;;;;;4.30;3.90;;;;;;;;;;6178780;23;20032;-82
2023/10/31 00:58:25;;;;;;;3.92;3.63;;;;;;;;;;6122530;23;20017;-82
2023/10/31 01:00:51;;;;;;;4.07;3.70;;;;;;;;;;6146439;23;20020;-81
2023/10/31 01:03:19;;;;;;;3.97;3.63;;;;;;;;;;6119765;23;20044;-82
2023/10/31 01:05:45;;;;;;;4.30;3.90;;;;;;;;;;6141111;23;20014;-82
2023/10/31 01:08:11;;;;;;;5.97;2.78;;;;;;;;;;6142282;23;20069;-81
2023/10/31 01:10:37;;;;;;;3.92;3.63;;;;;;;;;;6168633;23;20017;-82
2023/10/31 01:13:04;;;;;;;3.67;3.40;;;;;;;;;;6139455;23;20473;-82
2023/10/31 01:15:30;;;;;;;3.63;3.42;;;;;;;;;;6139038;23;20060;-82
2023/10/31 01:17:55;;;;;;;3.60;3.30;;;;;;;;;;6117173;23;20014;-80
2023/10/31 01:20:22;;;;;;;3.20;2.85;;;;;;;;;;6142938;23;20020;-81
2023/10/31 01:22:48;;;;;;;3.80;3.50;;;;;;;;;;6137429;23;20524;-82
2023/10/31 01:25:14;;;;;;;5.18;3.60;;;;;;;;;;6162816;23;20028;-82
2023/10/31 01:27:41;;;;;;;3.20;2.90;;;;;;;;;;6136296;23;20013;-82
2023/10/31 01:30:08;;;;;;;3.13;2.92;;;;;;;;;;6163259;23;20013;-81
2023/10/31 01:32:34;;;;;;;3.53;3.22;;;;;;;;;;6139961;23;20107;-81
2023/10/31 01:35:00;;;;;;;3.00;2.80;;;;;;;;;;6147645;23;20013;-82
2023/10/31 01:37:26;;;;;;;3.83;3.53;;;;;;;;;;6148026;23;20040;-80
2023/10/31 01:39:53;;;;;;;4.20;3.78;;;;;;;;;;6125505;23;20013;-81
2023/10/31 01:42:19;;;;;;;4.07;3.67;;;;;;;;;;6146895;23;20020;-81
2023/10/31 01:44:45;;;;;;;3.67;3.45;;;;;;;;;;6144105;23;20025;-82
2023/10/31 01:47:11;;;;;;;3.90;3.50;;;;;;;;;;6141208;23;20013;-81
2023/10/31 01:49:37;;;;;;;4.40;4.00;;;;;;;;;;6143184;23;20057;-82
2023/10/31 01:52:04;;;;;;;4.13;3.83;;;;;;;;;;6146269;23;20017;-82
2023/10/31 01:54:34;;;;;;;4.50;3.50;;;;;;;;;;6170855;23;20029;-80
2023/10/31 01:57:01;;;;;;;4.72;4.20;;;;;;;;;;6169879;23;20114;-82
2023/10/31 01:59:27;;;;;;;4.22;3.80;;;;;;;;;;6163703;23;20013;-79
2023/10/31 02:01:54;;;;;;;3.72;3.42;;;;;;;;;;6137776;23;20084;-81
2023/10/31 02:04:20;;;;;;;4.65;3.47;;;;;;;;;;6136092;23;20022;-80
2023/10/31 02:06:46;;;;;;;4.00;3.70;;;;;;;;;;6161576;23;20006;-80
2023/10/31 02:09:13;;;;;;;4.18;3.88;;;;;;;;;;6158670;23;20014;-81
2023/10/31 02:11:39;;;;;;;9.00;4.72;;;;;;;;;;6107292;23;20096;-81
2023/10/31 02:14:05;;;;;;;4.55;4.20;;;;;;;;;;6165096;23;20024;-81
2023/10/31 02:16:31;;;;;;;5.40;3.88;;;;;;;;;;6092450;23;20017;-81
2023/10/31 02:18:58;;;;;;;5.10;4.65;;;;;;;;;;6143109;23;20023;-81
2023/10/31 02:21:24;;;;;;;4.63;4.32;;;;;;;;;;6167402;23;19994;-82
2023/10/31 02:24:00;;;;;;;4.30;4.00;;;;;;;;;;6117442;23;20047;-81
2023/10/31 02:26:32;;;;;;;4.68;4.28;;;;;;;;;;6163709;23;20016;-81
2023/10/31 02:28:58;;;;;;;5.05;4.65;;;;;;;;;;6161667;23;20013;-81
2023/10/31 02:31:24;;;;;;;5.68;5.18;;;;;;;;;;6131068;23;20477;-81
2023/10/31 02:33:50;;;;;;;5.53;5.13;;;;;;;;;;6154784;23;20017;-80
2023/10/31 02:36:17;;;;;;;5.18;4.63;;;;;;;;;;6129140;23;20508;-81
2023/10/31 02:38:44;;;;;;;5.63;5.15;;;;;;;;;;6108209;23;20024;-81
2023/10/31 02:41:10;;;;;;;10.18;4.82;;;;;;;;;;6130987;23;20108;-81
2023/10/31 02:43:37;;;;;;;5.28;4.72;;;;;;;;;;6114908;23;20021;-81
2023/10/31 02:46:03;;;;;;;5.32;4.95;;;;;;;;;;6140608;23;20020;-81
2023/10/31 02:48:31;;;;;;;5.07;4.68;;;;;;;;;;6132148;23;20018;-80
2023/10/31 02:50:57;;;;;;;5.45;4.97;;;;;;;;;;6108183;23;20005;-81
2023/10/31 02:53:24;;;;;;;5.10;4.68;;;;;;;;;;6157889;23;20477;-80
2023/10/31 02:55:50;;;;;;;5.82;5.28;;;;;;;;;;6157622;23;20013;-81
2023/10/31 02:58:17;;;;;;;6.47;5.10;;;;;;;;;;6159713;23;20009;-82
2023/10/31 03:00:43;;;;;;;5.53;5.03;;;;;;;;;;6135947;23;20013;-81
2023/10/31 03:03:09;;;;;;;6.60;5.20;;;;;;;;;;6162743;23;20009;-81
2023/10/31 03:05:35;;;;;;;5.68;5.25;;;;;;;;;;6136651;23;20048;-81
2023/10/31 03:08:01;;;;;;;5.95;5.55;;;;;;;;;;6135245;23;20466;-81
2023/10/31 03:10:27;;;;;;;6.20;5.70;;;;;;;;;;6104239;23;20085;-81
2023/10/31 03:12:53;;;;;;;6.80;6.13;;;;;;;;;;6128927;23;20014;-81
2023/10/31 03:15:19;;;;;;;7.57;5.72;;;;;;;;;;6131064;23;20060;-82
2023/10/31 03:17:45;;;;;;;5.93;5.45;;;;;;;;;;6158332;23;20020;-81
2023/10/31 03:20:11;;;;;;;5.55;5.15;;;;;;;;;;6107566;23;20037;-80
2023/10/31 03:22:38;;;;;;;8.02;5.57;;;;;;;;;;6156884;23;20033;-81
2023/10/31 03:25:04;;;;;;;6.47;5.88;;;;;;;;;;6156751;23;20034;-80
2023/10/31 03:27:31;;;;;;;5.93;5.45;;;;;;;;;;6153505;23;20020;-81
2023/10/31 03:29:58;;;;;;;6.20;5.60;;;;;;;;;;6131382;23;20506;-80
2023/10/31 03:32:24;;;;;;;4.97;4.68;;;;;;;;;;6127461;23;20020;-80
2023/10/31 03:34:50;;;;;;;6.30;5.30;;;;;;;;;;6153656;23;20397;-81
2023/10/31 03:37:16;;;;;;;6.85;5.72;;;;;;;;;;6153456;23;20044;-81
2023/10/31 03:39:42;;;;;;;6.30;5.70;;;;;;;;;;6153687;23;20404;-81
2023/10/31 03:42:08;;;;;;;6.35;5.70;;;;;;;;;;6128976;23;20104;-82
2023/10/31 03:44:34;;;;;;;7.22;5.65;;;;;;;;;;6155863;23;20081;-81
2023/10/31 03:47:00;;;;;;;6.03;5.40;;;;;;;;;;6106116;23;20577;-81
2023/10/31 03:49:26;;;;;;;5.97;5.45;;;;;;;;;;6159136;23;20513;-79
2023/10/31 03:51:53;;;;;;;8.00;6.80;;;;;;;;;;6161377;23;20018;-81
2023/10/31 03:54:19;;;;;;;6.32;5.82;;;;;;;;;;6142604;23;20500;-80
2023/10/31 03:56:45;;;;;;;5.97;5.55;;;;;;;;;;6167790;23;20016;-80
2023/10/31 03:59:12;;;;;;;6.40;5.90;;;;;;;;;;6118190;23;20017;-80
2023/10/31 04:01:39;;;;;;;7.80;5.85;;;;;;;;;;6139980;23;20010;-80
2023/10/31 04:04:05;;;;;;;7.07;6.45;;;;;;;;;;6161096;23;20554;-81
2023/10/31 04:06:31;;;;;;;7.18;6.28;;;;;;;;;;6131955;23;20036;-81
2023/10/31 04:08:57;;;;;;;6.70;6.00;;;;;;;;;;6105121;23;20100;-81
2023/10/31 04:11:23;;;;;;;6.95;5.82;;;;;;;;;;6128757;23;20084;-81
2023/10/31 04:13:49;;;;;;;8.30;6.90;;;;;;;;;;6155617;23;20028;-81
2023/10/31 04:16:16;;;;;;;7.80;6.55;;;;;;;;;;6157168;23;20009;-80
2023/10/31 04:18:42;;;;;;;7.55;6.75;;;;;;;;;;6156762;23;20021;-81
2023/10/31 04:21:08;;;;;;;12.45;7.43;;;;;;;;;;6130191;23;20451;-79
2023/10/31 04:23:34;;;;;;;8.70;7.05;;;;;;;;;;6154194;23;20462;-78
2023/10/31 04:26:00;;;;;;;7.97;7.35;;;;;;;;;;6127555;23;20029;-79
2023/10/31 04:28:26;;;;;;;12.68;9.02;;;;;;;;;;6079290;23;20024;-78
2023/10/31 04:30:54;;;;;;;8.93;8.15;;;;;;;;;;6126900;23;20024;-79
2023/10/31 04:33:23;;;;;;;12.93;8.70;;;;;;;;;;6129165;23;20386;-79
2023/10/31 04:35:52;;;;;;;9.18;8.27;;;;;;;;;;6134390;23;20458;-81
2023/10/31 04:38:19;;;;;;;9.82;8.65;;;;;;;;;;6159887;23;20029;-80
2023/10/31 04:40:45;;;;;;;9.63;8.68;;;;;;;;;;6134543;23;20013;-80
2023/10/31 04:43:11;;;;;;;10.90;9.77;;;;;;;;;;6111527;23;20017;-82
2023/10/31 04:45:37;;;;;;;10.90;8.70;;;;;;;;;;6138994;23;20076;-81
2023/10/31 04:48:03;;;;;;;10.27;8.68;;;;;;;;;;6115208;23;20117;-81
2023/10/31 04:50:29;;;;;;;10.95;9.20;;;;;;;;;;6164375;23;20025;-81
2023/10/31 04:52:55;;;;;;;10.25;9.25;;;;;;;;;;6168672;23;20417;-81
2023/10/31 04:55:21;;;;;;;11.77;8.95;;;;;;;;;;6168196;23;20013;-80
2023/10/31 04:57:47;;;;;;;10.73;8.50;;;;;;;;;;6157908;23;20114;-79
2023/10/31 05:00:14;;;;;;;10.57;8.68;;;;;;;;;;6107451;23;20013;-81
2023/10/31 05:02:40;;;;;;;9.73;8.80;;;;;;;;;;6133037;23;20013;-79
2023/10/31 05:05:06;;;;;;;13.57;7.65;;;;;;;;;;6158924;23;20386;-81
2023/10/31 05:07:32;;;;;;;10.90;8.05;;;;;;;;;;6160144;23;20446;-79
2023/10/31 05:09:59;;;;;;;9.70;8.90;;;;;;;;;;6134904;23;20476;-81
2023/10/31 05:12:25;;;;;;;10.05;8.63;;;;;;;;;;6138406;23;20044;-81
2023/10/31 05:14:51;;;;;;;8.52;7.78;;;;;;;;;;6163181;23;20037;-81
2023/10/31 05:17:17;;;;;;;12.50;9.52;;;;;;;;;;6161164;23;20017;-81
2023/10/31 05:19:43;;;;;;;9.48;8.45;;;;;;;;;;6134102;23;20013;-81
2023/10/31 05:22:09;;;;;;;10.68;9.23;;;;;;;;;;6085194;23;20017;-82
2023/10/31 05:24:36;;;;;;;11.98;9.38;;;;;;;;;;6108650;23;20021;-81
2023/10/31 05:27:02;;;;;;;10.57;8.93;;;;;;;;;;6159501;23;20013;-80
2023/10/31 05:29:30;;;;;;;10.48;9.38;;;;;;;;;;6110230;23;20092;-80
2023/10/31 05:31:56;;;;;;;9.60;8.70;;;;;;;;;;6161612;23;20013;-80
2023/10/31 05:34:21;;;;;;;8.73;7.38;;;;;;;;;;6166107;23;20028;-80
2023/10/31 05:36:47;;;;;;;9.27;8.50;;;;;;;;;;6161333;23;20040;-79
2023/10/31 05:39:15;;;;;;;9.75;8.50;;;;;;;;;;6105724;23;20075;-79
2023/10/31 05:41:41;;;;;;;11.10;9.85;;;;;;;;;;6154803;23;20040;-79
2023/10/31 05:44:07;;;;;;;9.48;7.90;;;;;;;;;;6154769;23;20364;-78
2023/10/31 05:46:38;;;;;;;9.90;7.55;;;;;;;;;;6154210;23;20362;-79
2023/10/31 05:49:05;;;;;;;13.07;10.25;;;;;;;;;;6154537;23;20013;-79
2023/10/31 05:51:32;;;;;;;10.70;9.57;;;;;;;;;;6128214;23;20024;-78
2023/10/31 05:53:58;;;;;;;10.85;9.15;;;;;;;;;;6153925;23;20529;-78
2023/10/31 05:56:24;;;;;;;15.57;10.82;;;;;;;;;;6127638;23;20018;-79
2023/10/31 05:58:50;;;;;;;10.07;9.27;;;;;;;;;;6155690;23;20017;-79
2023/10/31 06:01:16;;;;;;;12.65;11.45;;;;;;;;;;6131071;23;20473;-77
2023/10/31 06:03:45;;;;;;;12.70;10.32;;;;;;;;;;6153121;23;20021;-78
2023/10/31 06:06:11;;;;;;;11.63;10.43;;;;;;;;;;6153144;23;20013;-77
2023/10/31 06:08:38;;;;;;;10.35;9.45;;;;;;;;;;6152913;23;20072;-77
2023/10/31 06:11:04;;;;;;;10.57;9.75;;;;;;;;;;6152793;23;20040;-77
2023/10/31 06:13:31;;;;;;;12.10;10.32;;;;;;;;;;6153580;23;20010;-78
2023/10/31 06:16:00;;;;;;;9.55;8.85;;;;;;;;;;6153551;23;20032;-78
2023/10/31 06:18:26;;;;;;;9.68;8.77;;;;;;;;;;6155203;23;20036;-78
2023/10/31 06:20:52;;;;;;;11.25;10.25;;;;;;;;;;6155885;23;20028;-78
2023/10/31 06:23:19;;;;;;;11.10;10.20;;;;;;;;;;6154815;23;20014;-78
2023/10/31 06:25:45;;;;;;;10.68;9.68;;;;;;;;;;6153930;23;20013;-79
2023/10/31 06:28:11;;;;;;;10.75;9.82;;;;;;;;;;6124275;23;20130;-78
2023/10/31 06:30:37;;;;;;;11.00;10.00;;;;;;;;;;6126768;23;20040;-77
2023/10/31 06:33:03;;;;;;;10.95;9.68;;;;;;;;;;6152881;23;20009;-77
2023/10/31 06:35:29;;;;;;;12.25;11.05;;;;;;;;;;6153337;23;20059;-76
2023/10/31 06:37:59;;;;;;;11.55;10.43;;;;;;;;;;6153825;23;20097;-76
2023/10/31 06:40:25;;;;;;;9.10;8.40;;;;;;;;;;6153867;23;20024;-76
2023/10/31 06:42:51;;;;;;;10.50;9.60;;;;;;;;;;6125872;23;20017;-76
2023/10/31 06:45:17;;;;;;;11.35;10.35;;;;;;;;;;6125398;23;20080;-76
2023/10/31 06:47:43;;;;;;;12.02;11.00;;;;;;;;;;6127923;23;20104;-78
2023/10/31 06:50:09;;;;;;;13.55;11.10;;;;;;;;;;6127297;23;20024;-80
2023/10/31 06:52:36;;;;;;;13.35;11.98;;;;;;;;;;6123328;23;20064;-77
2023/10/31 06:55:02;;;;;;;12.30;11.13;;;;;;;;;;6123663;23;20013;-75
2023/10/31 06:57:30;;;;;;;12.02;10.93;;;;;;;;;;6121963;23;20368;-78
2023/10/31 06:59:56;;;;;;;11.50;10.30;;;;;;;;;;6123394;23;20016;-78
2023/10/31 07:02:22;;;;;;;12.05;10.85;;;;;;;;;;6123422;23;20018;-78
2023/10/31 07:04:49;;;;;;;9.73;8.88;;;;;;;;;;6124613;23;20021;-77
2023/10/31 07:07:15;;;;;;;11.13;10.07;;;;;;;;;;6124816;23;20014;-78
2023/10/31 07:09:41;;;;;;;12.02;10.70;;;;;;;;;;6124316;23;20182;-76
2023/10/31 07:12:07;;;;;;;10.73;9.73;;;;;;;;;;6122804;23;20029;-77
2023/10/31 07:14:33;;;;;;;9.10;8.32;;;;;;;;;;6122903;23;20014;-76
2023/10/31 07:16:58;;;;;;;13.43;11.95;;;;;;;;;;6122140;23;20477;-77
2023/10/31 07:19:24;;;;;;;16.60;11.65;;;;;;;;;;6123099;23;20014;-78
2023/10/31 07:21:51;;;;;;;16.20;11.30;;;;;;;;;;6122641;23;20438;-79
2023/10/31 07:24:17;;;;;;;11.45;10.30;;;;;;;;;;6097102;23;20026;-77
2023/10/31 07:26:43;;;;;;;10.95;9.95;;;;;;;;;;6122808;23;20010;-76
2023/10/31 07:29:09;;;;;;;12.45;11.18;;;;;;;;;;6122620;23;20028;-78
2023/10/31 07:31:38;;;;;;;12.63;10.93;;;;;;;;;;6122000;23;20017;-79
2023/10/31 07:34:05;;;;;;;11.32;10.30;;;;;;;;;;6122703;23;20339;-76
2023/10/31 07:36:34;;;;;;;10.15;9.25;;;;;;;;;;6122983;23;20486;-78
2023/10/31 07:39:01;;;;;;;10.93;9.65;;;;;;;;;;6124086;23;20390;-77
2023/10/31 07:41:28;;;;;;;12.85;11.43;;;;;;;;;;6125843;23;20041;-77
2023/10/31 07:43:54;;;;;;;13.20;11.30;;;;;;;;;;6134740;23;20027;-77
2023/10/31 07:46:20;;;;;;;15.43;12.55;;;;;;;;;;6136387;23;20066;-77
2023/10/31 07:48:46;;;;;;;13.57;12.02;;;;;;;;;;6127298;23;20020;-78
2023/10/31 07:51:12;;;;;;;17.35;12.77;;;;;;;;;;6124989;23;20018;-76
2023/10/31 07:53:38;;;;;;;15.80;11.07;;;;;;;;;;6129097;23;20029;-79
2023/10/31 07:56:04;;;;;;;12.90;11.52;;;;;;;;;;6129192;23;20595;-80
2023/10/31 07:58:30;;;;;;;13.20;11.93;;;;;;;;;;6154195;23;20057;-76
2023/10/31 08:00:56;;;;;;;13.75;12.45;;;;;;;;;;6128688;23;20013;-79
2023/10/31 08:03:22;;;;;;;15.25;13.60;;;;;;;;;;6126007;23;20044;-79
2023/10/31 08:05:48;;;;;;;17.30;14.13;;;;;;;;;;6151682;23;20021;-79
2023/10/31 08:08:14;;;;;;;17.02;13.88;;;;;;;;;;6152201;23;20481;-81
2023/10/31 08:10:41;;;;;;;26.27;17.90;;;;;;;;;;6154421;23;20017;-80
2023/10/31 08:13:07;;;;;;;30.63;18.42;;;;;;;;;;6154010;23;20116;-81
2023/10/31 08:15:33;;;;;;;29.77;17.88;;;;;;;;;;6154350;23;20420;-81
2023/10/31 08:17:59;;;;;;;28.67;16.60;;;;;;;;;;6154908;23;20483;-80
2023/10/31 08:20:25;;;;;;;23.67;15.98;;;;;;;;;;6156201;23;20468;-81
2023/10/31 08:22:51;;;;;;;22.63;16.27;;;;;;;;;;6156156;23;20193;-80
2023/10/31 08:25:18;;;;;;;27.88;18.02;;;;;;;;;;6131963;23;20048;-80
2023/10/31 08:27:45;;;;;;;28.25;18.25;;;;;;;;;;6167572;23;20045;-80
2023/10/31 08:30:11;;;;;;;38.28;20.17;;;;;;;;;;6145064;23;20014;-80
2023/10/31 08:32:37;;;;;;;51.38;24.08;;;;;;;;;;6159919;23;20104;-79
2023/10/31 08:35:03;;;;;;;54.42;24.05;;;;;;;;;;6159633;23;20017;-78
2023/10/31 08:37:29;;;;;;;54.05;22.90;;;;;;;;;;6157844;23;20100;-80
2023/10/31 08:39:55;;;;;;;36.40;20.02;;;;;;;;;;6126388;23;20041;-80
2023/10/31 08:42:22;;;;;;;31.70;18.88;;;;;;;;;;6126507;23;20466;-80
2023/10/31 08:44:48;;;;;;;25.50;18.90;;;;;;;;;;6155009;23;20112;-79
2023/10/31 08:47:14;;;;;;;38.03;21.75;;;;;;;;;;6154447;23;20017;-80
2023/10/31 08:49:40;;;;;;;32.22;19.42;;;;;;;;;;6153913;23;20013;-80
2023/10/31 08:52:06;;;;;;;39.83;21.70;;;;;;;;;;6153828;23;20028;-81
2023/10/31 08:54:32;;;;;;;45.67;22.52;;;;;;;;;;6155234;23;20013;-80
2023/10/31 08:56:58;;;;;;;39.95;21.02;;;;;;;;;;6153373;23;20100;-79
2023/10/31 08:59:24;;;;;;;42.35;21.25;;;;;;;;;;6128539;23;20014;-81
2023/10/31 09:01:50;;;;;;;33.50;19.02;;;;;;;;;;6104950;23;20062;-80
2023/10/31 09:04:17;;;;;;;36.30;20.65;;;;;;;;;;6127463;23;20632;-79
2023/10/31 09:06:43;;;;;;;36.28;19.05;;;;;;;;;;6128362;23;20455;-79
2023/10/31 09:09:10;;;;;;;32.42;17.95;;;;;;;;;;6129359;23;20482;-79
2023/10/31 09:11:36;;;;;;;30.02;18.10;;;;;;;;;;6154753;23;20013;-80
2023/10/31 09:14:02;;;;;;;30.08;19.25;;;;;;;;;;6128458;23;20462;-80
2023/10/31 09:16:28;;;;;;;30.17;20.02;;;;;;;;;;6154732;23;20036;-80
2023/10/31 09:18:55;;;;;;;26.88;18.70;;;;;;;;;;6154076;23;20473;-82
2023/10/31 09:21:21;;;;;;;25.55;17.00;;;;;;;;;;6155908;23;20121;-80
2023/10/31 09:23:47;;;;;;;14.45;12.90;;;;;;;;;;6155675;23;20022;-80
2023/10/31 09:26:13;;;;;;;12.48;10.02;;;;;;;;;;6130031;23;20009;-81
2023/10/31 09:28:41;;;;;;;15.60;14.05;;;;;;;;;;6156859;23;20047;-80
2023/10/31 09:31:09;;;;;;;15.57;12.32;;;;;;;;;;6155329;23;20084;-81
2023/10/31 09:33:35;;;;;;;14.93;12.52;;;;;;;;;;6130242;23;20445;-81
2023/10/31 09:36:02;;;;;;;16.23;11.02;;;;;;;;;;6156480;23;20072;-80
2023/10/31 09:38:28;;;;;;;17.88;14.18;;;;;;;;;;6155595;23;20473;-79
2023/10/31 09:40:55;;;;;;;14.20;11.18;;;;;;;;;;6153976;23;20025;-82
2023/10/31 09:43:21;;;;;;;18.30;14.48;;;;;;;;;;6156751;23;20013;-82
2023/10/31 09:45:47;;;;;;;15.05;12.48;;;;;;;;;;6158313;23;20017;-81
2023/10/31 09:48:13;;;;;;;17.90;13.38;;;;;;;;;;6156033;23;20013;-81
2023/10/31 09:50:39;;;;;;;16.70;13.13;;;;;;;;;;6130788;23;20036;-81
2023/10/31 09:53:06;;;;;;;14.43;12.60;;;;;;;;;;6127853;23;20024;-80
2023/10/31 09:55:32;;;;;;;16.15;13.05;;;;;;;;;;6129261;23;20013;-80
2023/10/31 09:57:58;;;;;;;12.68;11.57;;;;;;;;;;6105231;23;20021;-80
2023/10/31 10:00:24;;;;;;;13.57;12.35;;;;;;;;;;6105431;23;20017;-80
2023/10/31 10:02:50;;;;;;;14.38;12.55;;;;;;;;;;6129292;23;20052;-80
2023/10/31 10:05:17;;;;;;;17.38;13.30;;;;;;;;;;6154235;23;20021;-81
2023/10/31 10:07:44;;;;;;;13.32;11.93;;;;;;;;;;6155766;23;20009;-80
2023/10/31 10:10:11;;;;;;;12.52;11.25;;;;;;;;;;6104304;23;20023;-79
2023/10/31 10:12:37;;;;;;;13.13;11.85;;;;;;;;;;6157785;23;20054;-80
2023/10/31 10:15:03;;;;;;;15.25;12.57;;;;;;;;;;6131598;23;20367;-80
2023/10/31 10:17:30;;;;;;;12.90;11.60;;;;;;;;;;6130824;23;20013;-79
2023/10/31 10:20:09;;;;;;;14.50;11.80;;;;;;;;;;6156682;23;20013;-81
2023/10/31 10:22:39;;;;;;;13.25;12.05;;;;;;;;;;6153871;23;20126;-80
2023/10/31 10:25:09;;;;;;;14.80;13.07;;;;;;;;;;6154199;23;20029;-80
2023/10/31 10:27:36;;;;;;;14.25;12.85;;;;;;;;;;6153979;23;20485;-81
2023/10/31 10:30:03;;;;;;;17.42;14.45;;;;;;;;;;6154030;23;20028;-80
2023/10/31 10:32:30;;;;;;;14.10;12.75;;;;;;;;;;6157011;23;20016;-81
2023/10/31 10:34:57;;;;;;;13.48;12.25;;;;;;;;;;6154742;23;20541;-80
2023/10/31 10:37:23;;;;;;;15.57;14.07;;;;;;;;;;6128805;23;20076;-80
2023/10/31 10:39:51;;;;;;;14.95;13.50;;;;;;;;;;6154028;23;20014;-81
2023/10/31 10:42:18;;;;;;;21.15;16.42;;;;;;;;;;6156039;23;20418;-80
2023/10/31 10:44:44;;;;;;;18.88;16.45;;;;;;;;;;6154664;23;20025;-80
2023/10/31 10:47:12;;;;;;;17.40;14.88;;;;;;;;;;6103547;23;20555;-80
2023/10/31 10:49:38;;;;;;;14.00;12.45;;;;;;;;;;6128438;23;20144;-80
2023/10/31 10:52:05;;;;;;;12.68;11.45;;;;;;;;;;6153379;23;20017;-80
2023/10/31 10:54:33;;;;;;;13.18;12.07;;;;;;;;;;6154385;23;20044;-80
2023/10/31 10:57:23;;;;;;;14.02;12.13;;;;;;;;;;6103828;23;20450;-80
2023/10/31 10:59:53;;;;;;;14.63;13.25;;;;;;;;;;6100742;23;20020;-79
2023/10/31 11:02:19;;;;;;;13.65;12.35;;;;;;;;;;6128464;23;20092;-80
2023/10/31 11:04:46;;;;;;;14.55;12.13;;;;;;;;;;6127519;23;20096;-80
2023/10/31 11:07:12;;;;;;;13.25;12.13;;;;;;;;;;6104906;23;20505;-80
2023/10/31 11:09:38;;;;;;;14.50;11.13;;;;;;;;;;6156497;23;20020;-81
2023/10/31 11:12:05;;;;;;;12.65;11.68;;;;;;;;;;6155385;23;20052;-80
2023/10/31 11:14:31;;;;;;;9.52;8.45;;;;;;;;;;6155207;23;20021;-80
2023/10/31 11:16:59;;;;;;;12.00;10.82;;;;;;;;;;6128808;23;20048;-80
2023/10/31 11:19:25;;;;;;;11.15;10.15;;;;;;;;;;6117939;23;20025;-81
2023/10/31 11:21:58;;;;;;;11.02;10.20;;;;;;;;;;6177679;23;20009;-80
2023/10/31 11:24:26;;;;;;;12.63;11.32;;;;;;;;;;6174112;23;20017;-80
2023/10/31 11:26:52;;;;;;;12.23;11.13;;;;;;;;;;6173640;23;20036;-80
2023/10/31 11:29:18;;;;;;;12.75;11.55;;;;;;;;;;6137691;23;20023;-82
2023/10/31 11:31:45;;;;;;;12.27;11.13;;;;;;;;;;6158008;23;20013;-81
2023/10/31 11:34:12;;;;;;;13.63;12.48;;;;;;;;;;6156577;23;20026;-81
2023/10/31 11:36:38;;;;;;;12.30;10.32;;;;;;;;;;6130113;23;20009;-81
2023/10/31 11:39:12;;;;;;;14.07;12.75;;;;;;;;;;6130341;23;20017;-81
2023/10/31 11:41:38;;;;;;;15.77;13.88;;;;;;;;;;6104762;23;20028;-81
2023/10/31 11:44:04;;;;;;;13.45;12.32;;;;;;;;;;6155366;23;20027;-81
2023/10/31 11:46:30;;;;;;;14.77;13.30;;;;;;;;;;6105214;23;20048;-80
2023/10/31 11:48:56;;;;;;;14.88;13.50;;;;;;;;;;6129179;23;20580;-81
2023/10/31 11:51:23;;;;;;;14.55;12.82;;;;;;;;;;6129962;23;20017;-81
2023/10/31 11:53:52;;;;;;;13.52;12.40;;;;;;;;;;6158594;23;20104;-80
2023/10/31 11:56:19;;;;;;;14.52;13.07;;;;;;;;;;6156029;23;20458;-80
2023/10/31 11:58:54;;;;;;;13.20;11.93;;;;;;;;;;6107736;23;20028;-81
2023/10/31 12:01:20;;;;;;;13.63;12.38;;;;;;;;;;6154703;23;20014;-81
2023/10/31 12:03:49;;;;;;;15.82;13.15;;;;;;;;;;6156517;23;20044;-81
2023/10/31 12:06:15;;;;;;;13.45;12.20;;;;;;;;;;6155867;23;20041;-81
2023/10/31 12:08:42;;;;;;;19.48;12.90;;;;;;;;;;6130274;23;20024;-81
2023/10/31 12:11:11;;;;;;;17.80;12.57;;;;;;;;;;6131962;23;20069;-81
2023/10/31 12:13:38;;;;;;;15.10;13.55;;;;;;;;;;6156849;23;20045;-81
2023/10/31 12:16:05;;;;;;;15.35;12.82;;;;;;;;;;6129894;23;20068;-81
2023/10/31 12:18:31;;;;;;;14.40;12.95;;;;;;;;;;6155623;23;20014;-81
2023/10/31 12:20:58;;;;;;;19.90;14.73;;;;;;;;;;6128135;23;20013;-81
2023/10/31 12:23:24;;;;;;;14.82;13.32;;;;;;;;;;6154929;23;20010;-81
2023/10/31 12:25:50;;;;;;;13.30;11.82;;;;;;;;;;6153790;23;20017;-80
2023/10/31 12:28:17;;;;;;;15.85;12.45;;;;;;;;;;6157052;23;20100;-81
2023/10/31 12:30:46;;;;;;;14.00;12.60;;;;;;;;;;6155986;23;20021;-81
2023/10/31 12:33:12;;;;;;;18.48;13.98;;;;;;;;;;6155794;23;20128;-80
2023/10/31 12:35:38;;;;;;;22.67;14.98;;;;;;;;;;6157127;23;20009;-81
2023/10/31 12:38:04;;;;;;;23.58;14.77;;;;;;;;;;6154379;23;20017;-80
2023/10/31 12:40:31;;;;;;;18.77;15.20;;;;;;;;;;6154659;23;20009;-82
2023/10/31 12:42:57;;;;;;;22.70;16.33;;;;;;;;;;6128231;23;20013;-81
2023/10/31 12:45:23;;;;;;;34.70;15.50;;;;;;;;;;6104614;23;20025;-81
2023/10/31 12:48:09;;;;;;;24.15;15.10;;;;;;;;;;6129483;23;20081;-80
2023/10/31 12:50:40;;;;;;;24.88;16.15;;;;;;;;;;6080762;23;20021;-81
2023/10/31 12:53:06;;;;;;;23.75;15.80;;;;;;;;;;6130990;23;20028;-80
2023/10/31 12:55:39;;;;;;;32.92;14.52;;;;;;;;;;6158884;23;20044;-80
2023/10/31 12:58:05;;;;;;;26.90;14.52;;;;;;;;;;6155683;23;20041;-82
2023/10/31 13:00:32;;;;;;;28.30;11.65;;;;;;;;;;6130353;23;20447;-80
2023/10/31 13:03:04;;;;;;;56.35;15.38;;;;;;;;;;6129816;23;20013;-80
2023/10/31 13:05:30;;;;;;;50.28;13.60;;;;;;;;;;6104776;23;20049;-81
2023/10/31 13:07:57;;;;;;;33.03;14.60;;;;;;;;;;6131646;23;20009;-81
2023/10/31 13:10:23;;;;;;;46.22;15.35;;;;;;;;;;6156619;23;20020;-81
2023/10/31 13:12:49;;;;;;;67.10;15.32;;;;;;;;;;6156751;23;20101;-79
2023/10/31 13:15:16;;;;;;;43.22;15.77;;;;;;;;;;6154485;23;20072;-82
2023/10/31 13:17:45;;;;;;;54.40;22.33;;;;;;;;;;6154821;23;20022;-81
2023/10/31 13:20:11;;;;;;;60.85;21.58;;;;;;;;;;6154672;23;20017;-80
2023/10/31 13:22:37;;;;;;;60.53;16.00;;;;;;;;;;6155602;23;20460;-80
2023/10/31 13:25:04;;;;;;;58.30;17.17;;;;;;;;;;6158046;23;20021;-81
2023/10/31 13:27:31;;;;;;;84.80;17.42;;;;;;;;;;6129719;23;20020;-81
2023/10/31 13:29:57;;;;;;;74.43;18.95;;;;;;;;;;6130279;23;20020;-81
2023/10/31 13:32:24;;;;;;;44.15;16.85;;;;;;;;;;6105874;23;20045;-81
2023/10/31 13:34:50;;;;;;;58.95;16.30;;;;;;;;;;6081685;23;20583;-80
2023/10/31 13:37:16;;;;;;;49.33;12.52;;;;;;;;;;6080796;23;20103;-81
2023/10/31 13:39:42;;;;;;;47.50;18.65;;;;;;;;;;6106175;23;20017;-81
2023/10/31 13:42:10;;;;;;;53.38;19.13;;;;;;;;;;6130132;23;20013;-80
2023/10/31 13:44:36;;;;;;;51.38;17.73;;;;;;;;;;6156379;23;20439;-81
2023/10/31 13:47:03;;;;;;;57.53;21.25;;;;;;;;;;6153362;23;20013;-79
2023/10/31 13:49:29;;;;;;;66.80;20.63;;;;;;;;;;6154150;23;20024;-79
2023/10/31 13:51:55;;;;;;;71.05;18.80;;;;;;;;;;6153948;23;20067;-79
2023/10/31 13:54:21;;;;;;;58.65;21.20;;;;;;;;;;6153980;23;20021;-80
2023/10/31 13:56:47;;;;;;;36.47;18.15;;;;;;;;;;6104161;23;20015;-79
2023/10/31 13:59:14;;;;;;;41.67;18.70;;;;;;;;;;6102759;23;20409;-80
2023/10/31 14:01:40;;;;;;;66.75;20.17;;;;;;;;;;6154705;23;20021;-79
2023/10/31 14:04:07;;;;;;;42.00;18.17;;;;;;;;;;6154943;23;20450;-78
2023/10/31 14:06:33;;;;;;;44.92;21.05;;;;;;;;;;6156166;23;20014;-79
2023/10/31 14:09:00;;;;;;;52.25;21.25;;;;;;;;;;6134302;23;20018;-78
2023/10/31 14:11:26;;;;;;;41.38;19.40;;;;;;;;;;6172294;23;20044;-79
2023/10/31 14:13:52;;;;;;;39.22;19.65;;;;;;;;;;6164602;23;20096;-79
2023/10/31 14:16:18;;;;;;;48.38;19.95;;;;;;;;;;6107336;23;20022;-79
2023/10/31 14:18:47;;;;;;;46.95;20.17;;;;;;;;;;6158264;23;20017;-79
2023/10/31 14:21:13;;;;;;;38.35;16.88;;;;;;;;;;6130414;23;20016;-79
2023/10/31 14:23:39;;;;;;;38.65;20.00;;;;;;;;;;6129147;23;20021;-79
2023/10/31 14:26:06;;;;;;;36.00;18.55;;;;;;;;;;6129069;23;20018;-79